Time;durP1;ratioP1;P1;durP2;ratioP2;P2;SDS_P1;SDS_P2;PMS_P1;PMS_P2;Temp;Humidity;BMP_temperature;BMP_pressure;BME280_temperature;BME280_humidity;BME280_pressure;Samples;Min_cycle;Max_cycle;Signal;HPM_P1;HPM_P2
2021/04/01 00:00:09;;;;;;;0.70;0.70;;;22.80;44.50;;;;;;5132688;27;20078;-36
2021/04/01 00:02:36;;;;;;;0.70;0.68;;;22.80;44.50;;;;;;5132709;27;20050;-36
2021/04/01 00:05:07;;;;;;;1.00;0.63;;;22.80;44.50;;;;;;5117517;27;20039;-36
2021/04/01 00:07:34;;;;;;;0.80;0.80;;;22.80;44.50;;;;;;5132849;27;20414;-36
2021/04/01 00:10:01;;;;;;;1.52;0.85;;;22.80;44.50;;;;;;5117257;27;20047;-36
2021/04/01 00:12:27;;;;;;;1.65;0.90;;;22.70;44.40;;;;;;5133552;27;20050;-36
2021/04/01 00:14:54;;;;;;;1.05;0.70;;;22.80;44.50;;;;;;5132831;27;20042;-36
2021/04/01 00:17:21;;;;;;;0.65;0.52;;;22.70;44.40;;;;;;5133459;27;20043;-37
2021/04/01 00:19:48;;;;;;;0.88;0.73;;;22.80;44.50;;;;;;5117158;27;20301;-36
2021/04/01 00:22:15;;;;;;;0.98;0.80;;;22.80;44.50;;;;;;5134404;27;20043;-36
2021/04/01 00:24:41;;;;;;;1.30;0.90;;;22.80;44.50;;;;;;5116148;27;20100;-36
2021/04/01 00:27:08;;;;;;;0.95;0.65;;;22.80;44.50;;;;;;5133196;27;20082;-37
2021/04/01 00:29:35;;;;;;;1.20;0.80;;;22.80;44.50;;;;;;5126240;27;20040;-37
2021/04/01 00:32:02;;;;;;;0.80;0.80;;;22.70;44.40;;;;;;5120142;27;20400;-37
2021/04/01 00:34:29;;;;;;;1.05;0.80;;;22.70;44.40;;;;;;5117831;27;20043;-36
2021/04/01 00:36:56;;;;;;;0.80;0.70;;;22.80;44.50;;;;;;5119928;27;20043;-37
2021/04/01 00:39:22;;;;;;;0.65;0.50;;;22.70;44.40;;;;;;5119379;27;20043;-37
2021/04/01 00:41:49;;;;;;;1.00;0.75;;;22.70;44.40;;;;;;5117645;27;20173;-38
2021/04/01 00:44:17;;;;;;;1.20;0.90;;;22.70;44.40;;;;;;5117020;27;20041;-37
2021/04/01 00:46:47;;;;;;;0.90;0.57;;;22.70;44.40;;;;;;5099305;27;20051;-37
2021/04/01 00:49:16;;;;;;;1.20;0.82;;;22.80;44.50;;;;;;5113958;27;20043;-37
2021/04/01 00:51:43;;;;;;;1.17;0.63;;;22.70;44.40;;;;;;5117313;27;20047;-37
2021/04/01 00:54:10;;;;;;;0.88;0.80;;;22.70;44.40;;;;;;5133753;27;20051;-37
2021/04/01 00:56:37;;;;;;;0.73;0.60;;;22.80;44.50;;;;;;5103272;27;20047;-37
2021/04/01 00:59:06;;;;;;;1.13;0.90;;;22.80;44.50;;;;;;5128591;27;20057;-37
2021/04/01 01:01:50;;;;;;;0.95;0.63;;;22.70;44.40;;;;;;5114504;27;20539;-37
2021/04/01 01:04:18;;;;;;;1.15;0.82;;;22.70;44.40;;;;;;5124596;27;20066;-37
2021/04/01 01:06:45;;;;;;;1.23;0.90;;;22.70;44.40;;;;;;5118822;27;20124;-37
2021/04/01 01:09:12;;;;;;;0.82;0.80;;;22.70;45.10;;;;;;5117341;27;20097;-38
2021/04/01 01:11:39;;;;;;;1.23;0.90;;;22.70;44.40;;;;;;5116721;27;20120;-37
2021/04/01 01:14:08;;;;;;;1.50;1.00;;;22.70;44.40;;;;;;5119735;27;20047;-36
2021/04/01 01:16:36;;;;;;;1.35;0.90;;;22.70;44.50;;;;;;5134136;27;20042;-37
2021/04/01 01:19:04;;;;;;;1.60;1.00;;;22.70;44.40;;;;;;5133224;27;20047;-37
2021/04/01 01:21:31;;;;;;;0.52;0.50;;;22.70;44.50;;;;;;5115576;27;20043;-37
2021/04/01 01:23:59;;;;;;;1.10;0.80;;;22.70;44.40;;;;;;5097510;27;20039;-37
2021/04/01 01:26:26;;;;;;;1.00;0.90;;;22.80;44.60;;;;;;5119902;27;20070;-38
2021/04/01 01:28:53;;;;;;;0.90;0.50;;;22.70;44.40;;;;;;5117051;27;20092;-37
2021/04/01 01:31:22;;;;;;;1.20;0.80;;;22.70;44.50;;;;;;5125932;27;20059;-37
2021/04/01 01:33:49;;;;;;;1.10;0.70;;;22.70;44.40;;;;;;5134162;27;20043;-37
2021/04/01 01:36:16;;;;;;;1.15;0.77;;;22.70;44.40;;;;;;5134175;27;20085;-37
2021/04/01 01:38:43;;;;;;;1.42;1.00;;;22.70;44.40;;;;;;5134369;27;20039;-36
2021/04/01 01:41:09;;;;;;;0.98;0.70;;;22.70;44.40;;;;;;5131568;27;20043;-37
2021/04/01 01:43:36;;;;;;;0.85;0.80;;;22.70;44.40;;;;;;5131905;27;20114;-37
2021/04/01 01:46:03;;;;;;;1.20;0.80;;;22.70;44.40;;;;;;5115943;27;20755;-37
2021/04/01 01:48:30;;;;;;;1.05;0.73;;;22.70;44.50;;;;;;5133448;27;20051;-36
2021/04/01 01:50:58;;;;;;;1.17;0.80;;;22.70;44.40;;;;;;5132293;27;20051;-37
2021/04/01 01:53:26;;;;;;;0.88;0.73;;;22.70;44.40;;;;;;5114680;27;20072;-36
2021/04/01 01:55:52;;;;;;;1.30;0.80;;;22.70;44.40;;;;;;5132308;27;20043;-36
2021/04/01 01:58:21;;;;;;;1.10;0.90;;;22.70;44.40;;;;;;5131771;27;20162;-37
2021/04/01 02:00:53;;;;;;;1.33;0.80;;;22.70;44.40;;;;;;5129583;27;20047;-37
2021/04/01 02:03:24;;;;;;;0.80;0.75;;;22.70;44.40;;;;;;5116465;27;20043;-36
2021/04/01 02:05:51;;;;;;;0.77;0.75;;;22.70;44.40;;;;;;5110809;27;20048;-39
2021/04/01 02:08:18;;;;;;;0.80;0.70;;;22.70;44.40;;;;;;5120059;27;20424;-38
2021/04/01 02:10:48;;;;;;;0.98;0.80;;;22.70;44.40;;;;;;5111404;27;20515;-37
2021/04/01 02:13:17;;;;;;;0.80;0.70;;;22.70;44.40;;;;;;5131229;27;20042;-36
2021/04/01 02:15:45;;;;;;;0.93;0.80;;;22.70;44.40;;;;;;5133128;27;20043;-36
2021/04/01 02:18:15;;;;;;;0.70;0.50;;;22.70;44.40;;;;;;5131756;27;20489;-37
2021/04/01 02:20:47;;;;;;;0.80;0.65;;;22.70;44.40;;;;;;5115381;27;20074;-36
2021/04/01 02:23:25;;;;;;;1.10;0.80;;;22.70;45.10;;;;;;5131633;27;20066;-36
2021/04/01 02:25:55;;;;;;;0.95;0.60;;;22.70;44.40;;;;;;5131907;27;20486;-37
2021/04/01 02:28:24;;;;;;;1.42;0.88;;;22.70;44.40;;;;;;5132473;27;20121;-37
2021/04/01 02:30:53;;;;;;;0.85;0.70;;;22.70;44.40;;;;;;5110860;27;20388;-36
2021/04/01 02:33:22;;;;;;;0.93;0.82;;;22.70;44.50;;;;;;5131374;27;20105;-37
2021/04/01 02:35:49;;;;;;;0.82;0.63;;;22.70;44.40;;;;;;5131930;27;20043;-36
2021/04/01 02:38:16;;;;;;;0.55;0.55;;;22.70;44.40;;;;;;5131520;27;20039;-36
2021/04/01 02:40:43;;;;;;;1.08;0.75;;;22.70;44.50;;;;;;5131630;27;20107;-36
2021/04/01 02:43:13;;;;;;;1.00;0.65;;;22.70;44.40;;;;;;5132107;27;20118;-37
2021/04/01 02:45:40;;;;;;;0.90;0.70;;;22.70;44.50;;;;;;5132743;27;20050;-36
2021/04/01 02:48:07;;;;;;;0.95;0.70;;;22.70;44.50;;;;;;5131557;27;20059;-36
2021/04/01 02:50:33;;;;;;;1.15;0.75;;;22.70;44.50;;;;;;5130778;27;20077;-36
2021/04/01 02:53:00;;;;;;;0.90;0.70;;;22.70;44.50;;;;;;5130581;27;20055;-36
2021/04/01 02:55:27;;;;;;;1.33;0.82;;;22.70;44.40;;;;;;5130508;27;20518;-36
2021/04/01 02:57:54;;;;;;;1.05;0.70;;;22.70;44.40;;;;;;5120276;27;20052;-36
2021/04/01 03:00:25;;;;;;;0.85;0.77;;;22.70;44.50;;;;;;5123710;27;20460;-36
2021/04/01 03:02:57;;;;;;;1.02;0.73;;;22.70;44.50;;;;;;5129417;27;20122;-37
2021/04/01 03:05:24;;;;;;;1.67;0.80;;;22.70;44.40;;;;;;5131581;27;20070;-36
2021/04/01 03:07:50;;;;;;;1.50;0.80;;;22.70;44.40;;;;;;5131872;27;20070;-36
2021/04/01 03:10:17;;;;;;;0.68;0.60;;;22.70;44.40;;;;;;5131462;27;20066;-36
2021/04/01 03:12:43;;;;;;;0.88;0.55;;;22.70;44.40;;;;;;5133773;27;20050;-36
2021/04/01 03:15:11;;;;;;;0.95;0.80;;;22.70;44.40;;;;;;5112382;27;20052;-36
2021/04/01 03:17:39;;;;;;;1.05;0.80;;;22.70;44.50;;;;;;5130759;28;20051;-36
2021/04/01 03:20:07;;;;;;;1.23;0.80;;;22.70;44.50;;;;;;5114058;28;20080;-36
2021/04/01 03:22:34;;;;;;;1.05;0.77;;;22.70;44.50;;;;;;5132470;27;20044;-36
2021/04/01 03:25:01;;;;;;;0.90;0.80;;;22.70;44.50;;;;;;5118675;27;20048;-36
2021/04/01 03:27:27;;;;;;;1.33;0.70;;;22.70;44.50;;;;;;5128167;27;20088;-36
2021/04/01 03:30:03;;;;;;;0.50;0.50;;;22.70;44.50;;;;;;5121446;27;20509;-36
2021/04/01 03:32:32;;;;;;;1.23;0.90;;;22.70;44.50;;;;;;5102569;28;20051;-36
2021/04/01 03:34:58;;;;;;;1.00;0.80;;;22.70;44.50;;;;;;5115359;27;20453;-36
2021/04/01 03:37:25;;;;;;;1.40;0.90;;;22.70;44.50;;;;;;5115130;27;20044;-36
2021/04/01 03:39:52;;;;;;;1.02;0.80;;;22.60;44.40;;;;;;5116619;27;20395;-36
2021/04/01 03:42:20;;;;;;;1.15;0.63;;;22.70;44.50;;;;;;5133840;27;20131;-36
2021/04/01 03:44:46;;;;;;;1.30;0.80;;;22.70;44.40;;;;;;5116420;27;20445;-36
2021/04/01 03:47:13;;;;;;;1.10;0.80;;;22.60;44.40;;;;;;5119046;27;20047;-36
2021/04/01 03:49:40;;;;;;;0.93;0.80;;;22.70;44.50;;;;;;5119268;27;20055;-36
2021/04/01 03:52:07;;;;;;;0.90;0.80;;;22.70;44.50;;;;;;5120121;27;20048;-36
2021/04/01 03:54:34;;;;;;;1.30;0.80;;;22.70;44.50;;;;;;5120138;27;20499;-36
2021/04/01 03:57:02;;;;;;;0.90;0.80;;;22.70;44.50;;;;;;5121353;27;20067;-37
2021/04/01 03:59:42;;;;;;;1.60;1.13;;;22.60;44.40;;;;;;5124699;27;20071;-36
2021/04/01 04:05:25;;;;;;;1.13;0.80;;;22.70;44.40;;;;;;5067293;28;20209;-36
2021/04/01 04:08:05;;;;;;;1.10;0.80;;;22.60;44.40;;;;;;5062840;28;20045;-38
2021/04/01 04:15:43;;;;;;;1.00;0.80;;;22.60;44.40;;;;;;5068515;28;20051;-37
2021/04/01 04:18:10;;;;;;;0.95;0.70;;;22.60;44.40;;;;;;5070716;28;20049;-37
2021/04/01 04:20:37;;;;;;;0.98;0.82;;;22.60;44.40;;;;;;5067230;28;20049;-36
2021/04/01 04:23:04;;;;;;;1.00;0.88;;;22.70;44.50;;;;;;5069412;28;20496;-38
2021/04/01 04:25:31;;;;;;;1.75;0.95;;;22.60;44.40;;;;;;5069378;28;20041;-37
2021/04/01 04:30:34;;;;;;;1.27;0.80;;;22.60;44.40;;;;;;5056568;28;20091;-37
2021/04/01 04:33:01;;;;;;;0.80;0.80;;;22.60;44.40;;;;;;5072251;28;20139;-37
2021/04/01 04:35:28;;;;;;;1.20;0.90;;;22.60;44.40;;;;;;5069063;28;20105;-36
2021/04/01 04:37:55;;;;;;;1.20;0.80;;;22.60;44.40;;;;;;5055218;28;20242;-36
2021/04/01 04:40:21;;;;;;;0.90;0.85;;;22.60;44.40;;;;;;5092350;27;20068;-36
2021/04/01 04:42:48;;;;;;;0.82;0.60;;;22.60;44.40;;;;;;5131912;27;20039;-36
2021/04/01 04:45:14;;;;;;;1.20;0.85;;;22.60;44.40;;;;;;5133100;27;20394;-36
2021/04/01 04:47:41;;;;;;;1.10;1.00;;;22.60;44.40;;;;;;5133465;27;20043;-36
2021/04/01 04:50:08;;;;;;;1.67;1.00;;;22.60;44.40;;;;;;5132477;27;20048;-37
2021/04/01 04:52:36;;;;;;;1.20;0.82;;;22.60;44.40;;;;;;5134356;27;20558;-37
2021/04/01 04:55:06;;;;;;;1.13;0.80;;;22.60;44.40;;;;;;5116972;27;20514;-38
2021/04/01 04:58:19;;;;;;;0.93;0.82;;;22.70;44.50;;;;;;5133778;27;20068;-37
2021/04/01 05:05:55;;;;;;;1.35;0.90;;;22.60;44.40;;;;;;5118422;27;20370;-37
2021/04/01 05:08:22;;;;;;;1.02;0.85;;;22.60;44.40;;;;;;5133081;27;20043;-38
2021/04/01 05:10:51;;;;;;;0.90;0.80;;;22.60;44.40;;;;;;5133638;27;20058;-37
2021/04/01 05:13:18;;;;;;;0.93;0.80;;;22.60;44.40;;;;;;5132526;27;20146;-37
2021/04/01 05:15:47;;;;;;;0.82;0.70;;;22.60;44.40;;;;;;5130160;27;20485;-38
2021/04/01 05:18:28;;;;;;;0.75;0.70;;;22.60;44.40;;;;;;5132987;27;20051;-37
2021/04/01 05:20:57;;;;;;;1.13;0.93;;;22.60;44.40;;;;;;5133224;27;20047;-37
2021/04/01 05:26:11;;;;;;;0.93;0.77;;;22.60;44.40;;;;;;5131976;27;20160;-39
2021/04/01 05:28:38;;;;;;;1.52;1.30;;;22.60;44.40;;;;;;5134044;27;20047;-37
2021/04/01 05:31:15;;;;;;;1.00;0.90;;;22.60;44.40;;;;;;5123706;27;20466;-37
2021/04/01 05:33:45;;;;;;;1.10;0.90;;;22.60;44.40;;;;;;5131334;27;20129;-37
2021/04/01 05:36:16;;;;;;;1.08;0.90;;;22.60;44.40;;;;;;5131713;27;20047;-36
2021/04/01 05:38:43;;;;;;;1.20;0.80;;;22.60;44.40;;;;;;5133306;27;20080;-37
2021/04/01 05:41:10;;;;;;;1.13;0.80;;;22.60;44.40;;;;;;5132138;27;20039;-37
2021/04/01 05:43:43;;;;;;;1.00;0.90;;;22.60;44.40;;;;;;5134159;27;20092;-38
2021/04/01 05:46:30;;;;;;;1.60;1.00;;;22.60;44.40;;;;;;5097113;27;20067;-37
2021/04/01 05:49:10;;;;;;;1.02;0.73;;;22.60;44.40;;;;;;5131357;27;20664;-37
2021/04/01 05:51:59;;;;;;;1.02;0.90;;;22.60;44.40;;;;;;5131337;27;20051;-37
2021/04/01 06:06:07;;;;;;;0.80;0.77;;;22.60;44.40;;;;;;5045664;28;20154;-36
2021/04/01 06:08:40;;;;;;;1.08;0.82;;;22.60;44.40;;;;;;5048606;28;20041;-36
2021/04/01 06:11:07;;;;;;;1.00;0.85;;;22.60;44.40;;;;;;5040025;28;20182;-36
2021/04/01 06:14:20;;;;;;;0.98;0.90;;;22.60;44.40;;;;;;5032391;28;20172;-36
2021/04/01 06:16:34;;;;;;;0.80;0.70;;;22.60;44.40;;;;;;5032883;28;20045;-36
2021/04/01 06:19:05;;;;;;;1.35;1.00;;;22.60;44.40;;;;;;5033226;28;20080;-36
2021/04/01 06:21:47;;;;;;;0.98;0.82;;;22.60;44.40;;;;;;5034221;28;20048;-36
2021/04/01 06:24:28;;;;;;;1.00;0.80;;;22.60;44.40;;;;;;5032896;28;20069;-36
2021/04/01 06:27:14;;;;;;;1.00;0.68;;;22.60;44.40;;;;;;5031557;28;20048;-36
2021/04/01 06:32:33;;;;;;;0.68;0.63;;;22.60;44.40;;;;;;5033193;28;20102;-36
2021/04/01 06:35:13;;;;;;;1.00;0.80;;;22.60;44.40;;;;;;5116860;27;20871;-37
2021/04/01 06:40:08;;;;;;;0.98;0.77;;;22.60;44.40;;;;;;5113745;28;20050;-36
2021/04/01 06:42:47;;;;;;;1.52;0.90;;;22.60;44.40;;;;;;5115478;27;20047;-36
2021/04/01 06:45:17;;;;;;;0.80;0.70;;;22.60;44.40;;;;;;5115988;27;20054;-37
2021/04/01 06:47:50;;;;;;;1.40;0.70;;;22.60;44.40;;;;;;5117153;27;20040;-37
2021/04/01 06:50:34;;;;;;;0.70;0.70;;;22.60;44.40;;;;;;5111974;28;20040;-37
2021/04/01 06:53:15;;;;;;;0.90;0.80;;;22.60;44.40;;;;;;5117379;27;20047;-36
2021/04/01 06:59:05;;;;;;;1.02;0.77;;;22.60;44.40;;;;;;5132475;27;20051;-37
2021/04/01 07:01:58;;;;;;;0.63;0.63;;;22.60;44.40;;;;;;5116347;28;20088;-36
2021/04/01 07:04:34;;;;;;;1.23;0.90;;;22.60;44.40;;;;;;5131109;28;20075;-36
2021/04/01 07:07:15;;;;;;;0.98;0.88;;;22.60;44.40;;;;;;5117163;28;20109;-36
2021/04/01 07:12:34;;;;;;;0.68;0.68;;;22.60;44.40;;;;;;5132382;28;20059;-36
2021/04/01 07:15:13;;;;;;;0.90;0.60;;;22.60;44.40;;;;;;5116272;28;20051;-36
2021/04/01 07:17:43;;;;;;;0.85;0.70;;;22.60;44.40;;;;;;5133832;27;20465;-37
2021/04/01 07:20:42;;;;;;;1.15;0.73;;;22.60;44.40;;;;;;5132977;27;20100;-38
2021/04/01 07:46:31;;;;;;;1.20;0.90;;;22.60;44.30;;;;;;5134634;27;20502;-37
2021/04/01 07:48:56;;;;;;;0.95;0.73;;;22.60;44.30;;;;;;5132078;27;20043;-37
2021/04/01 07:54:12;;;;;;;1.50;0.98;;;22.60;44.30;;;;;;5135086;27;20047;-37
2021/04/01 07:56:48;;;;;;;0.88;0.77;;;22.60;44.20;;;;;;5116410;27;20452;-38
2021/04/01 07:59:30;;;;;;;0.80;0.75;;;22.60;44.20;;;;;;5134429;27;20093;-37
2021/04/01 08:04:41;;;;;;;1.30;0.90;;;22.60;44.20;;;;;;5136046;27;20039;-37
2021/04/01 08:07:12;;;;;;;0.80;0.77;;;22.60;44.20;;;;;;5124689;27;20091;-37
2021/04/01 08:09:46;;;;;;;0.80;0.60;;;22.60;44.20;;;;;;5136891;27;20088;-37
2021/04/01 08:12:24;;;;;;;1.40;0.93;;;22.70;44.30;;;;;;5117988;27;20050;-37
2021/04/01 08:15:13;;;;;;;1.10;0.88;;;22.60;44.20;;;;;;5098912;27;20051;-36
2021/04/01 08:20:26;;;;;;;1.45;1.00;;;22.60;44.20;;;;;;5119115;27;20047;-36
2021/04/01 08:23:20;;;;;;;1.40;0.98;;;22.70;44.40;;;;;;5128904;27;20095;-36
2021/04/01 08:26:40;;;;;;;1.10;0.80;;;22.70;44.50;;;;;;5127407;27;20119;-38
2021/04/01 08:35:35;;;;;;;1.48;0.88;;;22.70;44.60;;;;;;5133586;27;20172;-36
2021/04/01 08:38:22;;;;;;;1.23;1.00;;;22.70;44.60;;;;;;5133226;27;20047;-38
2021/04/01 08:41:35;;;;;;;2.17;0.90;;;22.70;44.60;;;;;;5133878;27;20328;-37
2021/04/01 08:44:46;;;;;;;3.15;0.75;;;22.70;44.60;;;;;;5132235;27;20044;-38
2021/04/01 08:48:04;;;;;;;1.30;0.80;;;22.70;44.60;;;;;;5105650;27;20070;-37
2021/04/01 08:50:36;;;;;;;1.73;0.90;;;22.70;44.70;;;;;;5121447;27;20044;-38
2021/04/01 08:53:32;;;;;;;4.97;0.98;;;22.70;44.60;;;;;;5132827;27;20108;-37
2021/04/01 08:56:09;;;;;;;1.08;0.90;;;22.70;44.70;;;;;;5120123;27;20135;-36
2021/04/01 08:58:46;;;;;;;2.40;0.90;;;22.70;44.70;;;;;;5118371;27;20047;-37
2021/04/01 09:01:15;;;;;;;1.08;0.80;;;22.70;44.80;;;;;;5119079;27;20070;-37
2021/04/01 09:03:44;;;;;;;1.90;0.82;;;22.70;45.40;;;;;;5134047;27;20062;-37
2021/04/01 09:06:13;;;;;;;1.98;0.98;;;22.70;44.70;;;;;;5129344;27;20092;-37
2021/04/01 09:08:54;;;;;;;2.00;0.90;;;22.70;44.70;;;;;;5115437;27;20063;-37
2021/04/01 09:11:37;;;;;;;5.40;1.10;;;22.70;44.80;;;;;;5115532;27;20047;-37
2021/04/01 09:14:15;;;;;;;2.03;0.90;;;22.70;44.80;;;;;;5114930;27;20052;-37
2021/04/01 09:17:21;;;;;;;2.67;1.20;;;22.70;44.70;;;;;;5112389;28;20043;-37
2021/04/01 09:19:48;;;;;;;2.20;1.13;;;22.70;44.70;;;;;;5117025;27;20043;-37
2021/04/01 09:22:32;;;;;;;1.88;1.00;;;22.70;44.70;;;;;;5115445;27;20047;-37
2021/04/01 09:25:04;;;;;;;2.97;0.80;;;22.70;44.70;;;;;;5134421;27;20047;-38
2021/04/01 09:27:31;;;;;;;1.38;0.82;;;22.70;44.70;;;;;;5114855;27;20109;-37
2021/04/01 09:30:08;;;;;;;3.47;0.70;;;22.70;44.70;;;;;;5097078;28;20077;-37
2021/04/01 09:32:38;;;;;;;2.35;1.00;;;22.70;44.70;;;;;;5117142;27;20132;-38
2021/04/01 09:35:08;;;;;;;1.40;0.82;;;22.70;44.70;;;;;;5116719;27;20147;-38
2021/04/01 09:37:35;;;;;;;3.97;1.00;;;22.70;44.70;;;;;;5116962;27;20075;-37
2021/04/01 09:40:12;;;;;;;1.30;1.00;;;22.70;44.70;;;;;;5126770;27;20123;-38
2021/04/01 09:42:45;;;;;;;1.23;0.73;;;22.70;44.70;;;;;;5124135;27;20073;-38
2021/04/01 09:45:28;;;;;;;;;;;22.70;44.60;;;;;;5117884;27;20047;-37
2021/04/01 09:48:00;;;;;;;5.32;1.00;;;22.70;44.60;;;;;;5125810;27;19919;-37
2021/04/01 09:50:36;;;;;;;1.25;1.00;;;22.70;44.60;;;;;;5126567;27;20085;-37
2021/04/01 09:53:15;;;;;;;1.63;1.20;;;22.70;44.60;;;;;;5123559;27;20050;-37
2021/04/01 09:55:43;;;;;;;3.13;1.00;;;22.70;44.60;;;;;;5133063;27;20043;-36
2021/04/01 09:58:21;;;;;;;1.13;0.82;;;22.70;44.60;;;;;;5115023;27;20051;-37
2021/04/01 10:03:38;;;;;;;2.80;1.13;;;22.70;44.60;;;;;;5132012;27;20074;-37
2021/04/01 10:06:05;;;;;;;3.30;1.02;;;22.70;44.60;;;;;;5133725;27;20626;-37
2021/04/01 10:08:37;;;;;;;1.20;0.95;;;22.70;44.60;;;;;;5133135;27;20153;-37
2021/04/01 10:11:07;;;;;;;1.63;1.00;;;22.70;44.60;;;;;;5132427;27;20104;-37
2021/04/01 10:13:34;;;;;;;1.73;0.88;;;22.70;44.60;;;;;;5131585;27;20521;-36
2021/04/01 10:16:01;;;;;;;1.40;0.90;;;22.70;44.60;;;;;;5133973;27;20057;-36
2021/04/01 10:18:32;;;;;;;1.25;0.90;;;22.70;44.50;;;;;;5131916;27;20098;-37
2021/04/01 10:21:10;;;;;;;1.55;0.95;;;22.70;44.50;;;;;;5132099;27;20078;-37
2021/04/01 10:23:48;;;;;;;3.15;0.88;;;22.80;44.60;;;;;;5131885;27;20051;-36
2021/04/01 10:26:16;;;;;;;2.22;0.90;;;22.70;44.60;;;;;;5131850;27;20096;-37
2021/04/01 10:29:02;;;;;;;2.38;1.20;;;22.70;44.60;;;;;;5133098;27;20047;-37
2021/04/01 10:31:30;;;;;;;2.38;1.20;;;22.70;44.50;;;;;;5127298;27;20043;-37
2021/04/01 10:34:13;;;;;;;1.52;0.90;;;22.80;44.60;;;;;;5131572;27;20047;-39
2021/04/01 10:36:42;;;;;;;2.67;0.90;;;22.70;44.50;;;;;;5131836;27;20055;-36
2021/04/01 10:39:10;;;;;;;1.40;0.90;;;22.70;44.50;;;;;;5134151;27;20058;-37
2021/04/01 10:41:48;;;;;;;1.13;0.90;;;22.70;44.80;;;;;;5128825;27;20057;-37
2021/04/01 10:44:16;;;;;;;1.83;0.90;;;22.80;44.60;;;;;;5131924;27;20072;-37
2021/04/01 10:46:58;;;;;;;1.70;0.80;;;22.80;44.60;;;;;;5131323;27;20039;-39
2021/04/01 10:49:28;;;;;;;1.92;0.90;;;22.70;44.50;;;;;;5131717;27;20375;-37
2021/04/01 10:52:05;;;;;;;1.10;0.95;;;22.80;44.60;;;;;;5130830;27;20054;-37
2021/04/01 10:54:44;;;;;;;1.75;1.17;;;22.70;44.50;;;;;;5131705;27;20379;-37
2021/04/01 10:57:29;;;;;;;1.80;1.13;;;22.80;44.60;;;;;;5130360;27;20107;-37
2021/04/01 10:59:59;;;;;;;1.23;0.88;;;22.80;44.60;;;;;;5132741;27;20051;-37
2021/04/01 11:02:39;;;;;;;1.17;1.02;;;22.80;44.60;;;;;;5132498;27;20088;-39
2021/04/01 11:05:15;;;;;;;3.05;0.93;;;22.80;44.60;;;;;;5114868;27;20039;-37
2021/04/01 11:07:52;;;;;;;1.00;0.68;;;22.80;44.60;;;;;;5115103;27;20042;-37
2021/04/01 11:10:21;;;;;;;1.80;1.00;;;22.80;44.60;;;;;;5133789;27;20043;-37
2021/04/01 11:12:58;;;;;;;1.60;0.95;;;22.80;44.50;;;;;;5130935;27;20059;-37
2021/04/01 11:15:27;;;;;;;1.90;0.98;;;22.80;44.60;;;;;;5132628;28;20536;-37
2021/04/01 11:18:08;;;;;;;2.20;1.05;;;22.80;44.60;;;;;;5131772;27;20059;-37
2021/04/01 11:20:38;;;;;;;2.35;1.10;;;22.80;44.60;;;;;;5118416;27;20108;-37
2021/04/01 11:23:13;;;;;;;1.20;0.85;;;22.80;44.60;;;;;;5130662;27;20050;-36
2021/04/01 11:25:46;;;;;;;2.38;1.05;;;22.80;44.60;;;;;;5113263;28;20050;-36
2021/04/01 11:28:13;;;;;;;1.05;0.80;;;22.80;44.60;;;;;;5131127;27;20448;-36
2021/04/01 11:30:52;;;;;;;1.00;0.80;;;22.80;44.60;;;;;;5130273;27;20051;-37
2021/04/01 11:33:21;;;;;;;1.58;0.70;;;22.80;44.60;;;;;;5132644;27;20047;-36
2021/04/01 11:36:10;;;;;;;2.53;0.90;;;22.80;44.50;;;;;;5132161;27;20126;-36
2021/04/01 11:38:48;;;;;;;1.55;1.05;;;22.80;44.50;;;;;;5121115;27;20048;-36
2021/04/01 11:41:23;;;;;;;3.25;1.08;;;22.80;44.50;;;;;;5123964;27;20100;-36
2021/04/01 11:43:55;;;;;;;1.85;1.00;;;22.80;44.50;;;;;;5130603;27;20054;-36
2021/04/01 11:46:27;;;;;;;2.03;0.90;;;22.80;44.50;;;;;;5133367;27;20044;-36
2021/04/01 11:48:56;;;;;;;3.25;1.00;;;22.80;44.50;;;;;;5130880;27;20039;-36
2021/04/01 11:51:29;;;;;;;2.88;1.10;;;22.80;44.50;;;;;;5130661;27;20039;-36
2021/04/01 11:53:57;;;;;;;1.10;1.00;;;22.80;44.50;;;;;;5132568;27;20051;-37
2021/04/01 11:56:37;;;;;;;1.20;0.80;;;22.80;44.50;;;;;;5114019;27;20093;-36
2021/04/01 11:59:28;;;;;;;1.55;0.93;;;22.80;44.50;;;;;;5114896;27;20104;-36
2021/04/01 12:02:14;;;;;;;1.55;1.10;;;22.80;44.50;;;;;;5116758;27;20043;-37
2021/04/01 12:04:45;;;;;;;1.52;1.00;;;22.80;44.50;;;;;;5121193;27;20047;-36
2021/04/01 12:07:12;;;;;;;1.02;0.85;;;22.80;44.50;;;;;;5119918;27;20490;-36
2021/04/01 12:09:40;;;;;;;1.45;0.90;;;22.80;44.50;;;;;;5115866;27;20044;-36
2021/04/01 12:12:07;;;;;;;2.97;0.93;;;22.80;44.50;;;;;;5118580;27;20043;-37
2021/04/01 12:14:36;;;;;;;1.95;0.90;;;22.80;44.50;;;;;;5121005;27;20044;-36
2021/04/01 12:17:05;;;;;;;2.67;1.00;;;22.80;44.50;;;;;;5133600;27;20432;-36
2021/04/01 12:19:33;;;;;;;1.48;0.85;;;22.80;44.50;;;;;;5136650;27;20043;-37
2021/04/01 12:22:18;;;;;;;2.40;1.00;;;22.80;44.50;;;;;;5126555;27;20380;-36
2021/04/01 12:24:45;;;;;;;1.95;1.00;;;22.80;44.40;;;;;;5129573;27;20052;-36
2021/04/01 12:27:11;;;;;;;1.35;0.85;;;22.80;44.50;;;;;;5136631;27;20039;-36
2021/04/01 12:29:47;;;;;;;1.60;1.13;;;22.80;44.40;;;;;;5128475;27;20040;-36
2021/04/01 12:32:34;;;;;;;0.63;0.60;;;22.80;44.40;;;;;;5120738;27;20048;-36
2021/04/01 12:35:12;;;;;;;1.33;1.05;;;22.80;44.50;;;;;;5125681;27;20398;-36
2021/04/01 12:37:41;;;;;;;1.30;0.93;;;22.80;44.40;;;;;;5134257;27;20043;-36
2021/04/01 12:40:20;;;;;;;0.95;0.85;;;22.80;44.40;;;;;;5135956;27;20043;-37
2021/04/01 12:42:48;;;;;;;1.42;0.98;;;22.80;44.50;;;;;;5135112;27;20485;-37
2021/04/01 12:45:18;;;;;;;2.47;1.08;;;22.80;44.50;;;;;;5135086;27;20043;-36
2021/04/01 12:47:46;;;;;;;1.20;1.00;;;22.80;44.40;;;;;;5136274;27;20035;-37
2021/04/01 12:50:13;;;;;;;1.45;0.90;;;22.80;44.40;;;;;;5098295;27;20490;-37
2021/04/01 12:52:52;;;;;;;1.13;0.80;;;22.80;44.50;;;;;;5134951;27;20051;-37
2021/04/01 12:55:39;;;;;;;1.65;1.08;;;22.80;44.40;;;;;;5133837;27;20089;-37
2021/04/01 12:58:33;;;;;;;1.52;0.88;;;22.80;44.50;;;;;;5132899;27;20449;-37
2021/04/01 13:01:33;;;;;;;1.70;0.88;;;22.80;45.10;;;;;;5098781;27;20510;-37
2021/04/01 13:04:06;;;;;;;1.15;0.93;;;22.80;44.50;;;;;;5118107;27;20046;-37
2021/04/01 13:11:48;;;;;;;2.85;0.90;;;22.80;44.50;;;;;;5133152;27;20039;-38
2021/04/01 13:14:15;;;;;;;1.77;0.90;;;22.80;44.50;;;;;;5132961;27;20456;-37
2021/04/01 13:16:42;;;;;;;1.80;1.02;;;22.80;44.50;;;;;;5134946;27;20115;-37
2021/04/01 13:19:09;;;;;;;1.38;1.00;;;22.80;44.50;;;;;;5132933;27;20487;-37
2021/04/01 13:21:40;;;;;;;1.40;0.80;;;22.80;44.50;;;;;;5134309;27;20117;-38
2021/04/01 13:26:44;;;;;;;0.95;0.88;;;22.80;44.40;;;;;;5133093;27;20071;-37
2021/04/01 13:29:12;;;;;;;1.13;0.80;;;22.80;44.50;;;;;;5113165;27;20120;-37
2021/04/01 13:37:10;;;;;;;1.30;0.90;;;22.80;44.40;;;;;;5131930;27;20061;-37
2021/04/01 13:39:39;;;;;;;1.73;0.98;;;22.80;44.40;;;;;;5132843;27;20062;-38
2021/04/01 13:47:07;;;;;;;1.52;0.90;;;22.80;44.40;;;;;;5132790;27;20040;-37
2021/04/01 13:49:34;;;;;;;0.82;0.73;;;22.80;44.40;;;;;;5133851;27;20039;-37
2021/04/01 13:52:17;;;;;;;1.25;0.90;;;22.80;44.40;;;;;;5133666;27;20099;-37
2021/04/01 13:54:48;;;;;;;0.90;0.80;;;22.80;44.40;;;;;;5116088;27;20043;-37
2021/04/01 13:57:45;;;;;;;2.83;0.90;;;22.80;44.40;;;;;;5132159;27;20440;-37
2021/04/01 14:11:16;;;;;;;0.90;0.70;;;22.80;44.40;;;;;;5134581;27;20043;-37
2021/04/01 14:13:44;;;;;;;2.92;1.00;;;22.80;44.40;;;;;;5131544;27;20491;-38
2021/04/01 14:16:13;;;;;;;1.30;0.82;;;22.80;44.40;;;;;;5133515;27;20055;-38
2021/04/01 14:18:46;;;;;;;1.70;0.80;;;22.80;44.40;;;;;;5131856;27;20079;-37
2021/04/01 14:21:16;;;;;;;1.63;0.90;;;22.80;44.40;;;;;;5121165;27;20093;-36
2021/04/01 14:23:44;;;;;;;1.38;0.85;;;22.80;44.40;;;;;;5118460;27;20303;-37
2021/04/01 14:26:26;;;;;;;2.22;0.77;;;22.80;44.40;;;;;;5118631;27;20072;-39
2021/04/01 14:28:54;;;;;;;1.30;0.90;;;22.80;44.40;;;;;;5125406;27;20379;-38
2021/04/01 14:31:20;;;;;;;1.65;0.98;;;22.80;44.30;;;;;;5124368;27;20051;-38
2021/04/01 14:33:49;;;;;;;3.17;1.13;;;22.80;44.30;;;;;;5131743;27;20047;-37
2021/04/01 14:36:23;;;;;;;0.95;0.70;;;22.80;44.30;;;;;;5128462;27;20048;-38
2021/04/01 14:38:51;;;;;;;1.52;0.80;;;22.90;44.40;;;;;;5119798;27;20043;-37
2021/04/01 14:44:04;;;;;;;1.58;1.00;;;22.90;44.40;;;;;;5134491;27;20137;-38
2021/04/01 14:46:32;;;;;;;1.33;0.82;;;22.90;44.40;;;;;;5116075;27;20097;-38
2021/04/01 14:49:06;;;;;;;2.10;0.93;;;22.90;44.40;;;;;;5115570;27;20043;-38
2021/04/01 14:51:32;;;;;;;;;;;22.90;44.40;;;;;;5096899;28;20079;-37
2021/04/01 14:54:04;;;;;;;2.42;0.90;;;22.90;44.40;;;;;;5132410;27;20397;-37
2021/04/01 14:56:33;;;;;;;0.93;0.60;;;22.90;44.40;;;;;;5118608;27;20108;-37
2021/04/01 14:59:07;;;;;;;1.13;0.80;;;22.90;44.40;;;;;;5129940;27;20055;-37
2021/04/01 15:01:45;;;;;;;0.90;0.70;;;22.90;44.40;;;;;;5133757;27;20051;-37
2021/04/01 15:04:17;;;;;;;2.95;1.08;;;22.80;44.30;;;;;;5121223;27;20082;-38
2021/04/01 15:06:55;;;;;;;0.88;0.70;;;22.80;44.30;;;;;;5126944;27;20094;-36
2021/04/01 15:09:27;;;;;;;1.10;0.80;;;22.90;44.40;;;;;;5123382;27;20043;-37